Eno Valley, North Carolina
Current Conditions -  °F | °C
As of 1:35 PM on Thursday 30 Oct 2014 (Local Time) from KTDF Reporting Station
Clear Clear  
Wind Chill: 63°   Ceiling: Unl
Heat Index: 63°   Visibility: 10mi
Dew Point: 37°   Wind: 7mph
Humidity: 39%   Direction: 320°NW
Pressure: 30.04"   Gusts: NA
Location:  36.0947°N, 78.9284°W
Report Text: KTDF 301735Z AUTO 32006KT 10SM CLR 17/03 A3004 RMK AO2
Loading
Personal Weather Stations






























Interactive Weather Map
Tropical Storm Tracking
New forecast layout! Learn more

10-Day Weather Forecast

Advertisements
Track Severe Weather on mobile